sensor_id;sensor_type;location;lat;lon;timestamp;pressure;altitude;pressure_sealevel;temperature;humidity
55191;BME280;41070;50.360;18.742;2022-11-28T00:02:01;99460.97;;;0.60;90.40
55191;BME280;41070;50.360;18.742;2022-11-28T00:04:29;99460.73;;;0.62;90.72
55191;BME280;41070;50.360;18.742;2022-11-28T00:07:00;99462.85;;;0.67;90.63
55191;BME280;41070;50.360;18.742;2022-11-28T00:09:32;99459.75;;;0.68;90.56
55191;BME280;41070;50.360;18.742;2022-11-28T00:12:03;99458.07;;;0.70;90.39
55191;BME280;41070;50.360;18.742;2022-11-28T00:14:34;99453.64;;;0.69;89.92
55191;BME280;41070;50.360;18.742;2022-11-28T00:17:07;99454.44;;;0.68;89.98
55191;BME280;41070;50.360;18.742;2022-11-28T00:19:39;99448.80;;;0.67;89.52
55191;BME280;41070;50.360;18.742;2022-11-28T00:22:10;99446.00;;;0.66;89.98
55191;BME280;41070;50.360;18.742;2022-11-28T00:24:42;99440.88;;;0.67;90.08
55191;BME280;41070;50.360;18.742;2022-11-28T00:27:10;99442.31;;;0.68;90.06
55191;BME280;41070;50.360;18.742;2022-11-28T00:29:42;99439.80;;;0.69;90.07
55191;BME280;41070;50.360;18.742;2022-11-28T00:32:13;99445.55;;;0.71;90.24
55191;BME280;41070;50.360;18.742;2022-11-28T00:34:40;99442.14;;;0.75;90.29
55191;BME280;41070;50.360;18.742;2022-11-28T00:37:12;99441.40;;;0.75;89.69
55191;BME280;41070;50.360;18.742;2022-11-28T00:39:47;99442.26;;;0.76;89.85
55191;BME280;41070;50.360;18.742;2022-11-28T00:42:19;99442.78;;;0.78;89.93
55191;BME280;41070;50.360;18.742;2022-11-28T00:44:51;99434.30;;;0.78;90.06
55191;BME280;41070;50.360;18.742;2022-11-28T00:47:18;99429.45;;;0.78;90.13
55191;BME280;41070;50.360;18.742;2022-11-28T00:49:51;99424.81;;;0.77;89.85
55191;BME280;41070;50.360;18.742;2022-11-28T00:52:23;99423.48;;;0.75;89.58
55191;BME280;41070;50.360;18.742;2022-11-28T00:54:55;99423.73;;;0.70;89.70
55191;BME280;41070;50.360;18.742;2022-11-28T00:57:26;99418.85;;;0.64;89.87
55191;BME280;41070;50.360;18.742;2022-11-28T00:59:58;99415.67;;;0.61;89.84
55191;BME280;41070;50.360;18.742;2022-11-28T01:02:25;99412.03;;;0.59;90.04
55191;BME280;41070;50.360;18.742;2022-11-28T01:04:57;99405.80;;;0.57;90.05
55191;BME280;41070;50.360;18.742;2022-11-28T01:07:26;99405.60;;;0.59;90.11
55191;BME280;41070;50.360;18.742;2022-11-28T01:09:57;99407.25;;;0.58;90.46
55191;BME280;41070;50.360;18.742;2022-11-28T01:12:28;99416.47;;;0.62;90.60
55191;BME280;41070;50.360;18.742;2022-11-28T01:15:00;99413.55;;;0.70;90.82
55191;BME280;41070;50.360;18.742;2022-11-28T01:17:32;99410.34;;;0.79;90.55
55191;BME280;41070;50.360;18.742;2022-11-28T01:20:06;99405.81;;;0.84;90.48
55191;BME280;41070;50.360;18.742;2022-11-28T01:22:34;99406.47;;;0.90;90.56
55191;BME280;41070;50.360;18.742;2022-11-28T01:25:02;99409.06;;;0.94;90.36
55191;BME280;41070;50.360;18.742;2022-11-28T01:27:34;99406.39;;;0.97;90.51
55191;BME280;41070;50.360;18.742;2022-11-28T01:30:05;99403.92;;;1.02;90.31
55191;BME280;41070;50.360;18.742;2022-11-28T01:32:37;99396.50;;;1.02;90.10
55191;BME280;41070;50.360;18.742;2022-11-28T01:35:05;99391.80;;;1.04;90.14
55191;BME280;41070;50.360;18.742;2022-11-28T01:37:32;99384.85;;;1.07;90.02
55191;BME280;41070;50.360;18.742;2022-11-28T01:40:00;99382.80;;;1.06;89.83
55191;BME280;41070;50.360;18.742;2022-11-28T01:42:33;99373.09;;;1.01;89.72
55191;BME280;41070;50.360;18.742;2022-11-28T01:47:46;99358.04;;;0.90;89.73
55191;BME280;41070;50.360;18.742;2022-11-28T01:50:21;99349.73;;;0.82;89.60
55191;BME280;41070;50.360;18.742;2022-11-28T01:52:56;99347.63;;;0.77;89.99
55191;BME280;41070;50.360;18.742;2022-11-28T01:55:32;99349.46;;;0.77;90.27
55191;BME280;41070;50.360;18.742;2022-11-28T01:58:05;99357.32;;;0.82;90.41
55191;BME280;41070;50.360;18.742;2022-11-28T02:00:37;99370.09;;;0.86;90.63
55191;BME280;41070;50.360;18.742;2022-11-28T02:03:13;99367.80;;;0.82;90.34
55191;BME280;41070;50.360;18.742;2022-11-28T02:05:49;99352.80;;;0.82;90.37
55191;BME280;41070;50.360;18.742;2022-11-28T02:08:21;99355.65;;;0.84;90.75
55191;BME280;41070;50.360;18.742;2022-11-28T02:13:54;99353.39;;;0.91;90.47
55191;BME280;41070;50.360;18.742;2022-11-28T02:30:43;99342.61;;;0.97;90.23
55191;BME280;41070;50.360;18.742;2022-11-28T02:36:14;99336.59;;;0.93;90.26
55191;BME280;41070;50.360;18.742;2022-11-28T02:41:44;99329.54;;;0.98;90.93
55191;BME280;41070;50.360;18.742;2022-11-28T02:44:42;99331.50;;;1.04;90.72
55191;BME280;41070;50.360;18.742;2022-11-28T02:47:22;99323.23;;;1.07;90.90
55191;BME280;41070;50.360;18.742;2022-11-28T02:50:09;99327.03;;;1.09;90.70
55191;BME280;41070;50.360;18.742;2022-11-28T02:52:48;99328.56;;;1.10;90.53
55191;BME280;41070;50.360;18.742;2022-11-28T02:55:21;99325.98;;;1.11;90.40
55191;BME280;41070;50.360;18.742;2022-11-28T02:57:54;99324.46;;;1.14;90.53
55191;BME280;41070;50.360;18.742;2022-11-28T03:11:56;99316.77;;;1.24;90.52
55191;BME280;41070;50.360;18.742;2022-11-28T03:14:49;99310.08;;;1.22;90.55
55191;BME280;41070;50.360;18.742;2022-11-28T03:31:16;99288.30;;;1.23;90.48
55191;BME280;41070;50.360;18.742;2022-11-28T03:33:51;99291.14;;;1.26;90.83
55191;BME280;41070;50.360;18.742;2022-11-28T03:36:38;99289.67;;;1.33;90.85
55191;BME280;41070;50.360;18.742;2022-11-28T03:39:15;99286.14;;;1.34;90.79
55191;BME280;41070;50.360;18.742;2022-11-28T03:44:27;99283.08;;;1.38;91.21
55191;BME280;41070;50.360;18.742;2022-11-28T03:47:00;99281.38;;;1.38;90.59
55191;BME280;41070;50.360;18.742;2022-11-28T03:49:38;99278.55;;;1.34;90.49
55191;BME280;41070;50.360;18.742;2022-11-28T03:52:15;99277.64;;;1.32;90.76
55191;BME280;41070;50.360;18.742;2022-11-28T03:55:05;99273.59;;;1.31;90.61
55191;BME280;41070;50.360;18.742;2022-11-28T03:57:41;99277.80;;;1.32;90.90
55191;BME280;41070;50.360;18.742;2022-11-28T04:00:15;99274.33;;;1.36;90.99
55191;BME280;41070;50.360;18.742;2022-11-28T04:03:09;99277.90;;;1.38;91.25
55191;BME280;41070;50.360;18.742;2022-11-28T04:06:06;99277.28;;;1.35;90.94
55191;BME280;41070;50.360;18.742;2022-11-28T04:08:48;99279.11;;;1.33;90.77
55191;BME280;41070;50.360;18.742;2022-11-28T04:11:30;99280.29;;;1.32;90.85
55191;BME280;41070;50.360;18.742;2022-11-28T04:14:16;99284.13;;;1.31;91.14
55191;BME280;41070;50.360;18.742;2022-11-28T04:19:49;99282.65;;;1.36;91.22
55191;BME280;41070;50.360;18.742;2022-11-28T04:22:27;99276.58;;;1.39;91.24
55191;BME280;41070;50.360;18.742;2022-11-28T04:25:03;99279.54;;;1.41;91.14
55191;BME280;41070;50.360;18.742;2022-11-28T04:27:39;99278.64;;;1.40;91.35
55191;BME280;41070;50.360;18.742;2022-11-28T04:30:13;99277.74;;;1.40;90.93
55191;BME280;41070;50.360;18.742;2022-11-28T04:32:51;99285.35;;;1.42;91.00
55191;BME280;41070;50.360;18.742;2022-11-28T04:35:33;99281.34;;;1.43;91.15
55191;BME280;41070;50.360;18.742;2022-11-28T04:38:06;99278.69;;;1.44;90.97
55191;BME280;41070;50.360;18.742;2022-11-28T04:40:50;99276.12;;;1.42;90.92
55191;BME280;41070;50.360;18.742;2022-11-28T04:43:26;99275.73;;;1.39;90.64
55191;BME280;41070;50.360;18.742;2022-11-28T04:46:20;99277.95;;;1.37;90.99
55191;BME280;41070;50.360;18.742;2022-11-28T04:48:54;99283.08;;;1.35;91.00
55191;BME280;41070;50.360;18.742;2022-11-28T04:57:41;99279.65;;;1.30;91.09
55191;BME280;41070;50.360;18.742;2022-11-28T05:00:17;99275.74;;;1.30;91.35
55191;BME280;41070;50.360;18.742;2022-11-28T05:02:50;99278.80;;;1.27;90.94
55191;BME280;41070;50.360;18.742;2022-11-28T05:05:24;99280.27;;;1.27;91.08
55191;BME280;41070;50.360;18.742;2022-11-28T05:07:57;99280.02;;;1.28;91.45
55191;BME280;41070;50.360;18.742;2022-11-28T05:10:29;99285.13;;;1.28;91.26
55191;BME280;41070;50.360;18.742;2022-11-28T05:13:02;99279.70;;;1.29;91.32
55191;BME280;41070;50.360;18.742;2022-11-28T05:15:30;99284.77;;;1.32;91.39
55191;BME280;41070;50.360;18.742;2022-11-28T05:18:02;99286.23;;;1.35;91.31
55191;BME280;41070;50.360;18.742;2022-11-28T05:20:34;99283.08;;;1.38;91.37
55191;BME280;41070;50.360;18.742;2022-11-28T05:23:06;99285.45;;;1.43;91.61
55191;BME280;41070;50.360;18.742;2022-11-28T05:25:38;99277.95;;;1.48;91.27
55191;BME280;41070;50.360;18.742;2022-11-28T05:28:10;99278.59;;;1.47;91.37
55191;BME280;41070;50.360;18.742;2022-11-28T05:30:41;99281.23;;;1.46;91.01
55191;BME280;41070;50.360;18.742;2022-11-28T05:33:13;99285.30;;;1.46;90.93
55191;BME280;41070;50.360;18.742;2022-11-28T05:35:44;99279.59;;;1.47;91.46
55191;BME280;41070;50.360;18.742;2022-11-28T05:38:22;99282.39;;;1.52;91.22
55191;BME280;41070;50.360;18.742;2022-11-28T05:40:55;99278.89;;;1.50;90.99
55191;BME280;41070;50.360;18.742;2022-11-28T05:43:44;99274.95;;;1.53;91.31
55191;BME280;41070;50.360;18.742;2022-11-28T05:46:16;99273.62;;;1.53;91.03
55191;BME280;41070;50.360;18.742;2022-11-28T05:48:45;99270.92;;;1.55;91.30
55191;BME280;41070;50.360;18.742;2022-11-28T05:51:16;99270.92;;;1.59;91.30
55191;BME280;41070;50.360;18.742;2022-11-28T05:53:48;99272.66;;;1.61;91.35
55191;BME280;41070;50.360;18.742;2022-11-28T05:56:19;99268.86;;;1.64;91.24
55191;BME280;41070;50.360;18.742;2022-11-28T05:58:53;99272.14;;;1.65;91.04
55191;BME280;41070;50.360;18.742;2022-11-28T06:01:27;99265.64;;;1.64;91.19
55191;BME280;41070;50.360;18.742;2022-11-28T06:03:59;99262.00;;;1.65;91.08
55191;BME280;41070;50.360;18.742;2022-11-28T06:06:32;99263.47;;;1.67;91.05
55191;BME280;41070;50.360;18.742;2022-11-28T06:09:04;99264.90;;;1.69;91.29
55191;BME280;41070;50.360;18.742;2022-11-28T06:11:36;99264.20;;;1.73;91.30
55191;BME280;41070;50.360;18.742;2022-11-28T06:14:07;99262.14;;;1.75;90.94
55191;BME280;41070;50.360;18.742;2022-11-28T06:16:40;99257.82;;;1.74;90.89
55191;BME280;41070;50.360;18.742;2022-11-28T06:19:11;99257.40;;;1.74;90.99
55191;BME280;41070;50.360;18.742;2022-11-28T06:21:43;99256.38;;;1.78;91.16
55191;BME280;41070;50.360;18.742;2022-11-28T06:24:14;99257.38;;;1.80;90.89
55191;BME280;41070;50.360;18.742;2022-11-28T06:26:46;99257.54;;;1.81;90.82
55191;BME280;41070;50.360;18.742;2022-11-28T06:29:17;99261.29;;;1.79;90.64
55191;BME280;41070;50.360;18.742;2022-11-28T06:31:49;99260.55;;;1.80;90.99
55191;BME280;41070;50.360;18.742;2022-11-28T06:34:20;99260.55;;;1.79;90.73
55191;BME280;41070;50.360;18.742;2022-11-28T06:36:52;99262.34;;;1.80;91.05
55191;BME280;41070;50.360;18.742;2022-11-28T06:39:23;99263.23;;;1.83;90.89
55191;BME280;41070;50.360;18.742;2022-11-28T06:41:55;99262.75;;;1.87;91.12
55191;BME280;41070;50.360;18.742;2022-11-28T06:44:26;99267.13;;;1.91;91.04
55191;BME280;41070;50.360;18.742;2022-11-28T06:46:58;99266.27;;;1.88;90.58
55191;BME280;41070;50.360;18.742;2022-11-28T06:49:30;99265.86;;;1.86;90.47
55191;BME280;41070;50.360;18.742;2022-11-28T06:52:02;99265.61;;;1.85;90.56
55191;BME280;41070;50.360;18.742;2022-11-28T06:54:34;99264.02;;;1.82;90.39
55191;BME280;41070;50.360;18.742;2022-11-28T06:57:05;99263.60;;;1.80;90.60
55191;BME280;41070;50.360;18.742;2022-11-28T06:59:36;99264.14;;;1.80;90.49
55191;BME280;41070;50.360;18.742;2022-11-28T07:02:09;99260.66;;;1.77;90.48
55191;BME280;41070;50.360;18.742;2022-11-28T07:04:41;99259.23;;;1.80;90.76
55191;BME280;41070;50.360;18.742;2022-11-28T07:07:12;99255.26;;;1.86;91.07
55191;BME280;41070;50.360;18.742;2022-11-28T07:09:43;99258.20;;;1.90;90.88
55191;BME280;41070;50.360;18.742;2022-11-28T07:12:15;99258.34;;;1.95;90.88
55191;BME280;41070;50.360;18.742;2022-11-28T07:14:47;99254.48;;;1.99;91.13
55191;BME280;41070;50.360;18.742;2022-11-28T07:17:19;99253.66;;;2.07;91.25
55191;BME280;41070;50.360;18.742;2022-11-28T07:19:51;99249.30;;;2.13;90.86
55191;BME280;41070;50.360;18.742;2022-11-28T07:22:22;99252.26;;;2.18;90.76
55191;BME280;41070;50.360;18.742;2022-11-28T07:24:54;99249.50;;;2.20;90.53
55191;BME280;41070;50.360;18.742;2022-11-28T07:27:25;99243.52;;;2.23;90.80
55191;BME280;41070;50.360;18.742;2022-11-28T07:30:00;99244.77;;;2.27;90.42
55191;BME280;41070;50.360;18.742;2022-11-28T07:32:34;99239.91;;;2.28;90.39
55191;BME280;41070;50.360;18.742;2022-11-28T07:35:07;99237.73;;;2.30;90.45
55191;BME280;41070;50.360;18.742;2022-11-28T07:37:39;99237.33;;;2.34;90.23
55191;BME280;41070;50.360;18.742;2022-11-28T07:40:10;99234.99;;;2.36;90.27
55191;BME280;41070;50.360;18.742;2022-11-28T07:42:44;99228.71;;;2.36;90.03
55191;BME280;41070;50.360;18.742;2022-11-28T07:45:16;99231.88;;;2.40;90.04
55191;BME280;41070;50.360;18.742;2022-11-28T07:47:49;99227.54;;;2.39;90.00
55191;BME280;41070;50.360;18.742;2022-11-28T07:50:20;99231.64;;;2.43;90.11
55191;BME280;41070;50.360;18.742;2022-11-28T07:52:51;99230.42;;;2.46;90.15
55191;BME280;41070;50.360;18.742;2022-11-28T07:55:22;99224.98;;;2.53;90.32
55191;BME280;41070;50.360;18.742;2022-11-28T07:57:53;99219.95;;;2.55;89.83
55191;BME280;41070;50.360;18.742;2022-11-28T08:00:25;99220.27;;;2.55;89.92
55191;BME280;41070;50.360;18.742;2022-11-28T08:02:56;99223.52;;;2.60;90.14
55191;BME280;41070;50.360;18.742;2022-11-28T08:05:27;99220.40;;;2.66;90.08
55191;BME280;41070;50.360;18.742;2022-11-28T08:07:58;99216.63;;;2.72;90.21
55191;BME280;41070;50.360;18.742;2022-11-28T08:10:29;99215.70;;;2.76;89.83
55191;BME280;41070;50.360;18.742;2022-11-28T08:13:00;99214.99;;;2.78;89.75
55191;BME280;41070;50.360;18.742;2022-11-28T08:15:35;99210.85;;;2.81;89.83
55191;BME280;41070;50.360;18.742;2022-11-28T08:18:07;99206.98;;;2.82;89.66
55191;BME280;41070;50.360;18.742;2022-11-28T08:20:40;99206.58;;;2.87;89.93
55191;BME280;41070;50.360;18.742;2022-11-28T08:23:11;99206.43;;;2.92;89.82
55191;BME280;41070;50.360;18.742;2022-11-28T08:25:44;99210.71;;;2.99;89.52
55191;BME280;41070;50.360;18.742;2022-11-28T08:28:17;99211.73;;;2.98;88.87
55191;BME280;41070;50.360;18.742;2022-11-28T08:30:48;99210.76;;;2.94;89.01
55191;BME280;41070;50.360;18.742;2022-11-28T08:33:19;99212.96;;;2.96;88.96
55191;BME280;41070;50.360;18.742;2022-11-28T08:35:51;99209.83;;;2.98;89.08
55191;BME280;41070;50.360;18.742;2022-11-28T08:38:23;99210.34;;;3.00;88.90
55191;BME280;41070;50.360;18.742;2022-11-28T08:41:00;99210.88;;;3.06;89.18
55191;BME280;41070;50.360;18.742;2022-11-28T08:43:36;99215.10;;;3.12;89.20
55191;BME280;41070;50.360;18.742;2022-11-28T17:50:11;99023.10;;;1.53;85.31
55191;BME280;41070;50.360;18.742;2022-11-28T17:53:01;99017.37;;;1.48;85.56
55191;BME280;41070;50.360;18.742;2022-11-28T18:03:59;99013.00;;;1.35;86.12
55191;BME280;41070;50.360;18.742;2022-11-28T18:06:36;99010.75;;;1.33;85.70
55191;BME280;41070;50.360;18.742;2022-11-28T18:09:25;99012.64;;;1.34;86.04
55191;BME280;41070;50.360;18.742;2022-11-28T18:12:08;99011.27;;;1.31;86.08
55191;BME280;41070;50.360;18.742;2022-11-28T18:14:58;99008.14;;;1.24;85.81
55191;BME280;41070;50.360;18.742;2022-11-28T18:17:38;99003.85;;;1.20;85.82
55191;BME280;41070;50.360;18.742;2022-11-28T18:23:29;99006.27;;;1.19;86.36
55191;BME280;41070;50.360;18.742;2022-11-28T18:26:21;99006.43;;;1.17;86.21
55191;BME280;41070;50.360;18.742;2022-11-28T18:32:27;99015.67;;;1.14;86.04
55191;BME280;41070;50.360;18.742;2022-11-28T18:35:18;99007.88;;;1.11;86.14
55191;BME280;41070;50.360;18.742;2022-11-28T18:37:50;99012.45;;;1.11;86.23
55191;BME280;41070;50.360;18.742;2022-11-28T18:40:23;99014.90;;;1.11;86.30
55191;BME280;41070;50.360;18.742;2022-11-28T18:42:54;99014.52;;;1.10;86.57
55191;BME280;41070;50.360;18.742;2022-11-28T18:45:25;99013.05;;;1.08;86.46
55191;BME280;41070;50.360;18.742;2022-11-28T18:47:56;99013.39;;;1.04;86.48
55191;BME280;41070;50.360;18.742;2022-11-28T18:50:30;99018.77;;;1.05;86.51
55191;BME280;41070;50.360;18.742;2022-11-28T18:53:03;99017.91;;;1.05;85.95
55191;BME280;41070;50.360;18.742;2022-11-28T18:56:01;99015.70;;;1.03;86.06
55191;BME280;41070;50.360;18.742;2022-11-28T18:58:39;99019.30;;;1.02;86.66
55191;BME280;41070;50.360;18.742;2022-11-28T19:04:04;99020.30;;;1.00;86.26
55191;BME280;41070;50.360;18.742;2022-11-28T19:07:04;99027.64;;;0.97;86.19
55191;BME280;41070;50.360;18.742;2022-11-28T19:10:03;99024.02;;;0.94;86.45
55191;BME280;41070;50.360;18.742;2022-11-28T19:12:37;99023.69;;;0.94;86.84
55191;BME280;41070;50.360;18.742;2022-11-28T19:15:16;99019.23;;;0.91;86.26
55191;BME280;41070;50.360;18.742;2022-11-28T19:20:44;99018.71;;;0.83;86.16
55191;BME280;41070;50.360;18.742;2022-11-28T19:34:37;99015.77;;;1.17;85.81
55191;BME280;41070;50.360;18.742;2022-11-28T19:37:38;99018.77;;;1.20;85.82
55191;BME280;41070;50.360;18.742;2022-11-28T19:40:11;99022.79;;;1.16;85.88
55191;BME280;41070;50.360;18.742;2022-11-28T19:42:43;99020.59;;;1.10;85.78
55191;BME280;41070;50.360;18.742;2022-11-28T19:45:19;99022.45;;;1.04;85.76
55191;BME280;41070;50.360;18.742;2022-11-28T19:48:03;99020.36;;;0.98;85.84
55191;BME280;41070;50.360;18.742;2022-11-28T19:54:24;99026.04;;;0.88;86.08
55191;BME280;41070;50.360;18.742;2022-11-28T19:57:11;99030.36;;;0.83;85.67
55191;BME280;41070;50.360;18.742;2022-11-28T19:59:43;99029.64;;;0.75;85.64
55191;BME280;41070;50.360;18.742;2022-11-28T20:02:16;99033.80;;;0.76;86.06
55191;BME280;41070;50.360;18.742;2022-11-28T20:04:52;99032.39;;;0.72;86.26
55191;BME280;41070;50.360;18.742;2022-11-28T20:07:24;99034.77;;;0.68;85.83
55191;BME280;41070;50.360;18.742;2022-11-28T20:09:56;99036.34;;;0.65;85.80
55191;BME280;41070;50.360;18.742;2022-11-28T20:12:27;99037.72;;;0.58;85.76
55191;BME280;41070;50.360;18.742;2022-11-28T20:14:59;99038.95;;;0.52;85.69
55191;BME280;41070;50.360;18.742;2022-11-28T20:17:31;99043.16;;;0.47;85.62
55191;BME280;41070;50.360;18.742;2022-11-28T20:25:45;99049.21;;;0.40;85.82
55191;BME280;41070;50.360;18.742;2022-11-28T20:28:17;99042.36;;;0.40;86.12
55191;BME280;41070;50.360;18.742;2022-11-28T20:30:48;99043.74;;;0.39;85.73
55191;BME280;41070;50.360;18.742;2022-11-28T20:33:19;99038.73;;;0.36;86.00
55191;BME280;41070;50.360;18.742;2022-11-28T20:47:07;99038.10;;;0.37;86.69
55191;BME280;41070;50.360;18.742;2022-11-28T20:55:42;99038.20;;;0.33;86.96
55191;BME280;41070;50.360;18.742;2022-11-28T20:58:13;99041.20;;;0.35;86.86
55191;BME280;41070;50.360;18.742;2022-11-28T21:00:45;99040.63;;;0.35;86.90
55191;BME280;41070;50.360;18.742;2022-11-28T21:03:36;99044.58;;;0.37;86.96
55191;BME280;41070;50.360;18.742;2022-11-28T21:06:07;99043.67;;;0.37;87.02
55191;BME280;41070;50.360;18.742;2022-11-28T21:08:39;99044.42;;;0.37;86.63
55191;BME280;41070;50.360;18.742;2022-11-28T22:01:56;99060.09;;;0.09;86.37
55191;BME280;41070;50.360;18.742;2022-11-28T22:04:27;99062.83;;;0.07;86.49
55191;BME280;41070;50.360;18.742;2022-11-28T22:06:58;99061.30;;;0.02;86.51
55191;BME280;41070;50.360;18.742;2022-11-28T22:09:28;99064.81;;;-0.01;86.59
55191;BME280;41070;50.360;18.742;2022-11-28T22:12:00;99063.70;;;-0.02;86.71
55191;BME280;41070;50.360;18.742;2022-11-28T22:14:31;99061.23;;;-0.02;86.92
55191;BME280;41070;50.360;18.742;2022-11-28T22:17:03;99058.80;;;-0.04;86.89
